createdAt,value
2023-02-16T00:01:24.504Z,11.90
2023-02-16T00:03:53.534Z,12.30
2023-02-16T00:06:23.344Z,11.87
2023-02-16T00:08:53.361Z,11.67
2023-02-16T00:11:42.455Z,12.20
2023-02-16T00:14:12.368Z,11.23
2023-02-16T00:16:40.469Z,12.17
2023-02-16T00:19:23.079Z,11.60
2023-02-16T00:21:54.651Z,11.80
2023-02-16T00:24:23.186Z,11.23
2023-02-16T00:26:51.483Z,10.17
2023-02-16T00:29:22.387Z,11.80
2023-02-16T00:31:50.930Z,12.20
2023-02-16T00:34:28.460Z,10.93
2023-02-16T00:36:59.707Z,12.37
2023-02-16T00:39:28.787Z,11.80
2023-02-16T00:41:59.016Z,11.20
2023-02-16T00:44:34.342Z,11.23
2023-02-16T00:47:05.377Z,11.77
2023-02-16T00:49:33.336Z,10.53
2023-02-16T00:52:03.011Z,11.60
2023-02-16T00:54:32.162Z,12.03
2023-02-16T00:57:00.339Z,11.00
2023-02-16T00:59:28.358Z,12.13
2023-02-16T01:01:57.626Z,11.03
2023-02-16T01:04:25.839Z,10.17
2023-02-16T01:07:11.642Z,9.13
2023-02-16T01:09:58.374Z,10.47
2023-02-16T01:12:26.593Z,12.20
2023-02-16T01:14:56.536Z,12.00
2023-02-16T01:17:24.998Z,11.13
2023-02-16T01:19:53.102Z,11.83
2023-02-16T01:22:20.890Z,9.27
2023-02-16T01:24:50.059Z,10.70
2023-02-16T01:27:18.060Z,10.43
2023-02-16T01:29:45.902Z,10.77
2023-02-16T01:32:13.991Z,10.10
2023-02-16T01:34:42.637Z,10.60
2023-02-16T01:37:16.130Z,11.00
2023-02-16T01:39:44.093Z,10.20
2023-02-16T01:42:29.021Z,10.17
2023-02-16T01:45:00.516Z,10.33
2023-02-16T01:47:37.939Z,8.30
2023-02-16T01:50:17.285Z,9.97
2023-02-16T01:52:48.875Z,10.13
2023-02-16T01:55:21.285Z,10.47
2023-02-16T01:57:53.505Z,10.43
2023-02-16T02:00:28.723Z,10.80
2023-02-16T02:03:20.585Z,10.23
2023-02-16T02:05:49.057Z,10.83
2023-02-16T02:08:24.995Z,10.90
2023-02-16T02:11:04.309Z,10.33
2023-02-16T02:13:41.050Z,9.87
2023-02-16T02:16:09.875Z,10.27
2023-02-16T02:18:37.970Z,10.43
2023-02-16T02:21:55.035Z,10.47
2023-02-16T02:24:58.055Z,9.93
2023-02-16T02:27:29.793Z,10.53
2023-02-16T02:30:18.937Z,9.50
2023-02-16T02:33:13.401Z,9.00
2023-02-16T02:35:51.158Z,10.00
2023-02-16T02:38:26.064Z,9.80
2023-02-16T02:41:00.616Z,10.73
2023-02-16T02:43:37.300Z,10.17
2023-02-16T02:46:11.872Z,10.43
2023-02-16T02:48:40.099Z,11.10
2023-02-16T02:51:32.088Z,10.40
2023-02-16T02:54:24.116Z,9.47
2023-02-16T02:57:15.011Z,10.37
2023-02-16T03:00:05.808Z,9.40
2023-02-16T03:02:35.538Z,9.67
2023-02-16T03:05:06.778Z,10.20
2023-02-16T03:07:50.057Z,9.80
2023-02-16T03:10:38.691Z,9.37
2023-02-16T03:13:13.012Z,9.57
2023-02-16T03:15:45.043Z,8.87
2023-02-16T03:18:31.834Z,8.93
2023-02-16T03:21:18.699Z,10.27
2023-02-16T03:24:06.157Z,8.87
2023-02-16T03:26:52.142Z,9.43
2023-02-16T03:29:22.611Z,8.57
2023-02-16T03:31:54.135Z,8.73
2023-02-16T03:34:23.244Z,9.47
2023-02-16T03:36:55.000Z,8.93
2023-02-16T03:39:23.171Z,9.80
2023-02-16T03:41:53.936Z,8.40
2023-02-16T03:44:22.527Z,10.20
2023-02-16T03:46:52.864Z,9.37
2023-02-16T03:49:21.272Z,9.33
2023-02-16T03:51:49.397Z,9.37
2023-02-16T03:54:17.508Z,9.47
2023-02-16T03:56:45.348Z,9.13
2023-02-16T03:59:13.171Z,9.33
2023-02-16T04:01:41.321Z,9.60
2023-02-16T04:04:10.555Z,6.77
2023-02-16T04:06:38.508Z,10.07
2023-02-16T04:09:06.584Z,9.50
2023-02-16T04:11:51.854Z,10.27
2023-02-16T04:14:20.098Z,8.83
2023-02-16T04:16:47.933Z,8.97
2023-02-16T04:19:17.201Z,8.33
2023-02-16T04:21:45.173Z,9.77
2023-02-16T04:24:12.977Z,9.83
2023-02-16T04:26:40.878Z,10.00
2023-02-16T04:29:08.970Z,8.77
2023-02-16T04:31:36.906Z,9.10
2023-02-16T04:34:05.197Z,8.40
2023-02-16T04:36:35.491Z,9.67
2023-02-16T04:39:03.419Z,9.30
2023-02-16T04:41:31.413Z,9.73
2023-02-16T04:43:59.520Z,9.27
2023-02-16T04:46:27.617Z,7.97
2023-02-16T04:48:55.478Z,9.47
2023-02-16T04:51:23.468Z,8.60
2023-02-16T04:53:52.651Z,9.20
2023-02-16T04:56:20.540Z,8.93
2023-02-16T04:58:48.542Z,9.67
2023-02-16T05:01:20.491Z,7.57
2023-02-16T05:03:48.488Z,8.97
2023-02-16T05:06:16.942Z,9.07
2023-02-16T05:08:44.912Z,7.23
2023-02-16T05:11:31.777Z,7.90
2023-02-16T05:14:17.896Z,8.00
2023-02-16T05:16:46.805Z,6.90
2023-02-16T05:19:14.899Z,7.37
2023-02-16T05:21:42.866Z,6.00
2023-02-16T05:24:12.981Z,7.43
2023-02-16T05:26:42.322Z,7.50
2023-02-16T05:29:10.252Z,6.63
2023-02-16T05:31:38.980Z,8.23
2023-02-16T05:34:06.937Z,4.03
2023-02-16T05:36:34.806Z,6.30
2023-02-16T05:39:03.092Z,5.23
2023-02-16T05:41:31.034Z,5.83
2023-02-16T05:44:02.264Z,6.80
2023-02-16T05:46:32.880Z,5.60
2023-02-16T05:49:01.538Z,5.70
2023-02-16T05:51:29.713Z,5.90
2023-02-16T05:53:57.949Z,6.80
2023-02-16T05:56:25.905Z,6.53
2023-02-16T05:58:54.291Z,6.97
2023-02-16T06:01:23.808Z,6.80
2023-02-16T06:03:52.613Z,6.13
2023-02-16T06:06:20.988Z,6.73
2023-02-16T06:08:49.053Z,7.37
2023-02-16T06:11:34.667Z,7.20
2023-02-16T06:14:03.283Z,7.10
2023-02-16T06:16:34.999Z,6.53
2023-02-16T06:19:03.674Z,6.53
2023-02-16T06:21:32.310Z,7.17
2023-02-16T06:24:00.227Z,6.13
2023-02-16T06:26:28.508Z,6.50
2023-02-16T06:28:56.643Z,4.43
2023-02-16T06:31:25.329Z,5.73
2023-02-16T06:33:56.835Z,5.53
2023-02-16T06:36:25.786Z,6.17
2023-02-16T06:38:53.613Z,6.40
2023-02-16T06:41:32.395Z,5.83
2023-02-16T06:44:01.471Z,5.00
2023-02-16T06:46:29.685Z,6.43
2023-02-16T06:48:59.278Z,7.17
2023-02-16T06:51:27.726Z,6.03
2023-02-16T06:53:55.673Z,5.17
2023-02-16T06:56:23.864Z,4.93
2023-02-16T06:58:52.319Z,6.00
2023-02-16T07:01:23.422Z,6.30
2023-02-16T07:03:51.832Z,6.97
2023-02-16T07:06:21.498Z,4.73
2023-02-16T07:08:49.491Z,6.60
2023-02-16T07:11:19.340Z,7.77
2023-02-16T07:13:47.355Z,6.37
2023-02-16T07:16:15.934Z,5.90
2023-02-16T07:18:43.984Z,6.07
2023-02-16T07:21:11.942Z,7.03
2023-02-16T07:23:41.386Z,7.57
2023-02-16T07:26:09.362Z,6.77
2023-02-16T07:28:37.308Z,7.60
2023-02-16T07:31:09.654Z,7.83
2023-02-16T07:33:38.304Z,7.87
2023-02-16T07:36:07.113Z,6.77
2023-02-16T07:38:35.298Z,6.10
2023-02-16T07:41:08.607Z,7.67
2023-02-16T07:43:37.941Z,7.23
2023-02-16T07:46:06.685Z,7.57
2023-02-16T07:48:34.746Z,7.13
2023-02-16T07:51:03.409Z,7.10
2023-02-16T07:53:31.635Z,7.53
2023-02-16T07:55:59.514Z,7.07
2023-02-16T07:58:28.934Z,7.90
2023-02-16T08:00:57.968Z,7.70
2023-02-16T08:03:25.879Z,7.47
2023-02-16T08:05:53.949Z,6.30
2023-02-16T08:08:21.889Z,7.40
2023-02-16T08:10:49.732Z,6.63
2023-02-16T08:13:17.763Z,6.57
2023-02-16T08:15:47.015Z,7.00
2023-02-16T08:18:15.268Z,6.77
2023-02-16T08:21:01.550Z,7.70
2023-02-16T08:23:31.650Z,7.47
2023-02-16T08:26:00.112Z,7.20
2023-02-16T08:28:29.437Z,7.17
2023-02-16T08:31:03.661Z,6.57
2023-02-16T08:33:31.606Z,7.57
2023-02-16T08:35:59.678Z,7.50
2023-02-16T08:38:27.508Z,7.07
2023-02-16T08:40:56.052Z,6.87
2023-02-16T08:43:23.859Z,8.00
2023-02-16T08:45:52.038Z,7.97
2023-02-16T08:48:21.497Z,8.33
2023-02-16T08:50:53.962Z,8.03
2023-02-16T08:53:23.281Z,9.03
2023-02-16T08:55:55.813Z,8.83
2023-02-16T08:58:24.509Z,8.47
2023-02-16T09:00:52.609Z,8.40
2023-02-16T09:03:21.978Z,8.87
2023-02-16T09:05:51.372Z,7.73
2023-02-16T09:08:19.664Z,8.80
2023-02-16T09:10:47.734Z,8.03
2023-02-16T09:13:16.263Z,6.70
2023-02-16T09:15:44.933Z,8.83
2023-02-16T09:18:14.188Z,8.30
2023-02-16T09:20:46.890Z,8.30
2023-02-16T09:23:15.020Z,8.43
2023-02-16T09:25:43.041Z,8.73
2023-02-16T09:28:12.005Z,7.77
2023-02-16T09:30:40.481Z,8.60
2023-02-16T09:33:08.667Z,6.33
2023-02-16T09:35:39.109Z,9.67
2023-02-16T09:38:08.918Z,10.03
2023-02-16T09:40:37.824Z,9.60
2023-02-16T09:43:09.840Z,9.83
2023-02-16T09:45:44.937Z,9.63
2023-02-16T09:48:23.966Z,9.47
2023-02-16T09:50:55.653Z,9.87
2023-02-16T09:53:36.141Z,9.27
2023-02-16T09:56:17.039Z,9.97
2023-02-16T09:58:50.547Z,9.30
2023-02-16T10:01:29.108Z,10.37
2023-02-16T10:04:06.743Z,10.07
2023-02-16T10:06:58.580Z,10.43
2023-02-16T10:09:30.207Z,10.23
2023-02-16T10:12:05.568Z,9.47
2023-02-16T10:14:41.296Z,11.30
2023-02-16T10:17:18.386Z,11.50
2023-02-16T10:19:51.105Z,9.80
2023-02-16T10:22:32.562Z,10.67
2023-02-16T10:25:04.706Z,9.90
2023-02-16T10:27:39.178Z,12.00
2023-02-16T10:30:15.688Z,7.93
2023-02-16T10:32:56.209Z,11.67
2023-02-16T10:35:33.220Z,11.83
2023-02-16T10:38:08.434Z,13.93
2023-02-16T10:40:48.326Z,14.37
2023-02-16T10:43:21.634Z,13.57
2023-02-16T10:45:52.759Z,13.23
2023-02-16T10:48:21.951Z,10.93
2023-02-16T10:50:58.885Z,11.77
2023-02-16T10:53:38.216Z,14.20
2023-02-16T10:56:39.796Z,13.57
2023-02-16T10:59:13.863Z,12.80
2023-02-16T11:01:46.895Z,11.87
2023-02-16T11:04:36.710Z,14.37
2023-02-16T11:07:08.531Z,13.57
2023-02-16T11:09:37.706Z,13.17
2023-02-16T11:12:18.003Z,14.53
2023-02-16T11:14:51.599Z,13.87
2023-02-16T11:17:22.526Z,12.90
2023-02-16T11:19:53.987Z,14.83
2023-02-16T11:22:32.537Z,11.37
2023-02-16T11:25:21.455Z,14.17
2023-02-16T11:27:57.234Z,15.23
2023-02-16T11:30:32.518Z,15.70
2023-02-16T11:33:03.337Z,12.27
2023-02-16T11:35:32.927Z,12.80
2023-02-16T11:38:01.306Z,13.30
2023-02-16T11:40:33.144Z,15.50
2023-02-16T11:43:03.611Z,14.10
2023-02-16T11:45:34.681Z,15.37
2023-02-16T11:48:07.287Z,10.30
2023-02-16T11:50:38.776Z,14.63
2023-02-16T11:53:16.439Z,16.47
2023-02-16T11:55:46.338Z,15.43
2023-02-16T11:58:17.986Z,16.93
2023-02-16T12:00:57.880Z,15.33
2023-02-16T12:04:01.448Z,13.03
2023-02-16T12:06:40.825Z,14.67
2023-02-16T12:09:21.204Z,12.70
2023-02-16T12:12:02.611Z,15.23
2023-02-16T12:14:50.156Z,14.17
2023-02-16T12:17:28.012Z,16.77
2023-02-16T12:20:04.181Z,14.13
2023-02-16T12:22:41.177Z,15.10
2023-02-16T12:25:26.665Z,11.47
2023-02-16T12:28:02.735Z,15.47
2023-02-16T12:30:46.673Z,15.10
2023-02-16T12:33:33.429Z,14.27
2023-02-16T12:36:23.065Z,14.17
2023-02-16T12:39:03.265Z,14.60
2023-02-16T12:41:45.706Z,11.77
2023-02-16T12:44:19.335Z,12.73
2023-02-16T12:46:52.041Z,14.23
2023-02-16T12:49:25.715Z,12.83
2023-02-16T12:51:59.309Z,13.40
2023-02-16T12:54:31.428Z,14.70
2023-02-16T12:57:04.684Z,14.63
2023-02-16T12:59:40.038Z,15.23
2023-02-16T13:02:19.224Z,14.50
2023-02-16T13:04:51.087Z,14.80
2023-02-16T13:07:26.529Z,13.37
2023-02-16T13:10:01.358Z,14.77
2023-02-16T13:12:35.829Z,14.63
2023-02-16T13:15:12.771Z,14.70
2023-02-16T13:17:48.369Z,15.65
2023-02-16T13:20:18.300Z,16.57
2023-02-16T13:23:11.554Z,15.10
2023-02-16T13:26:11.624Z,15.93
2023-02-16T13:29:03.238Z,14.10
2023-02-16T13:31:43.868Z,15.30
2023-02-16T13:34:46.672Z,15.47
2023-02-16T13:37:25.266Z,13.63
2023-02-16T13:40:14.897Z,13.20
2023-02-16T13:43:04.441Z,14.47
2023-02-16T13:45:35.606Z,13.77
2023-02-16T13:48:03.526Z,16.37
2023-02-16T13:50:35.763Z,14.60
2023-02-16T13:53:19.745Z,15.57
2023-02-16T13:55:52.874Z,16.37
2023-02-16T13:58:33.558Z,14.67
2023-02-16T14:01:38.900Z,14.90
2023-02-16T14:04:11.980Z,15.60
2023-02-16T14:06:43.952Z,14.63
2023-02-16T14:09:34.965Z,13.83
2023-02-16T14:12:05.675Z,15.13
2023-02-16T14:14:36.457Z,13.97
2023-02-16T14:17:17.882Z,14.63
2023-02-16T14:19:55.918Z,14.57
2023-02-16T14:22:34.116Z,15.30
2023-02-16T14:25:05.446Z,16.37
2023-02-16T14:27:48.883Z,15.50
2023-02-16T14:30:23.261Z,13.80
2023-02-16T14:32:57.806Z,13.23
2023-02-16T14:35:30.195Z,14.83
2023-02-16T14:38:01.765Z,14.40
2023-02-16T14:40:48.838Z,15.20
2023-02-16T14:43:29.415Z,16.37
2023-02-16T14:46:13.775Z,16.33
2023-02-16T14:49:13.173Z,16.13
2023-02-16T14:52:17.138Z,16.00
2023-02-16T14:55:17.492Z,16.00
2023-02-16T14:57:51.965Z,15.47
2023-02-16T15:00:25.038Z,14.07
2023-02-16T15:02:58.300Z,15.83
2023-02-16T15:05:33.039Z,17.47
2023-02-16T15:08:09.526Z,16.23
2023-02-16T15:10:40.736Z,16.27
2023-02-16T15:13:09.822Z,17.50
2023-02-16T15:15:47.189Z,17.03
2023-02-16T15:18:18.306Z,17.30
2023-02-16T15:20:49.472Z,16.90
2023-02-16T15:23:20.793Z,16.77
2023-02-16T15:26:00.204Z,17.50
2023-02-16T15:28:29.495Z,8.38
2023-02-16T15:30:59.398Z,18.83
2023-02-16T15:33:33.824Z,16.83
2023-02-16T15:36:04.080Z,17.87
2023-02-16T15:38:34.601Z,18.30
2023-02-16T15:41:06.721Z,18.80
2023-02-16T15:43:38.691Z,19.70
2023-02-16T15:46:08.964Z,15.17
2023-02-16T15:48:38.362Z,17.33
2023-02-16T15:51:15.377Z,19.50
2023-02-16T15:53:48.936Z,18.57
2023-02-16T15:56:32.915Z,17.87
2023-02-16T15:59:02.732Z,16.20
2023-02-16T16:01:37.571Z,20.17
2023-02-16T16:04:09.435Z,16.85
2023-02-16T16:06:41.142Z,17.35
2023-02-16T16:09:20.988Z,18.92
2023-02-16T16:11:51.950Z,17.67
2023-02-16T16:14:20.650Z,18.83
2023-02-16T16:16:48.762Z,18.75
2023-02-16T16:19:20.281Z,19.08
2023-02-16T16:21:54.489Z,18.10
2023-02-16T16:24:34.136Z,18.00
2023-02-16T16:27:06.544Z,17.23
2023-02-16T16:29:37.607Z,17.67
2023-02-16T16:32:06.880Z,18.53
2023-02-16T16:34:38.625Z,18.17
2023-02-16T16:37:08.393Z,17.83
2023-02-16T16:39:41.115Z,16.60
2023-02-16T16:42:20.752Z,18.65
2023-02-16T16:45:00.958Z,17.73
2023-02-16T16:47:33.055Z,18.10
2023-02-16T16:50:04.054Z,18.93
2023-02-16T16:52:43.751Z,16.67
2023-02-16T16:55:38.889Z,18.37
2023-02-16T16:58:09.026Z,16.50
2023-02-16T17:00:38.729Z,18.90
2023-02-16T17:03:08.506Z,18.83
2023-02-16T17:05:38.444Z,17.47
2023-02-16T17:08:06.362Z,20.93
2023-02-16T17:10:36.200Z,17.87
2023-02-16T17:13:04.492Z,19.43
2023-02-16T17:15:41.336Z,18.27
2023-02-16T17:18:15.917Z,16.87
2023-02-16T17:20:44.132Z,17.33
2023-02-16T17:23:12.761Z,17.13
2023-02-16T17:25:41.346Z,17.90
2023-02-16T17:28:10.438Z,16.97
2023-02-16T17:30:40.111Z,16.08
2023-02-16T17:33:09.594Z,17.80
2023-02-16T17:35:39.402Z,17.70
2023-02-16T17:38:11.759Z,18.10
2023-02-16T17:40:41.441Z,16.17
2023-02-16T17:43:14.330Z,18.77
2023-02-16T17:45:45.150Z,18.48
2023-02-16T17:48:17.473Z,18.05
2023-02-16T17:50:45.832Z,17.47
2023-02-16T17:53:15.115Z,17.27
2023-02-16T17:55:43.071Z,17.83
2023-02-16T17:58:11.428Z,17.67
2023-02-16T18:00:39.755Z,16.63
2023-02-16T18:03:09.808Z,17.40
2023-02-16T18:05:38.056Z,18.20
2023-02-16T18:08:06.633Z,15.15
2023-02-16T18:10:37.395Z,17.60
2023-02-16T18:13:05.895Z,16.80
2023-02-16T18:15:34.805Z,17.10
2023-02-16T18:18:02.716Z,18.63
2023-02-16T18:20:32.084Z,16.70
2023-02-16T18:23:00.236Z,16.50
2023-02-16T18:25:28.200Z,16.20
2023-02-16T18:27:56.139Z,17.38
2023-02-16T18:30:24.955Z,17.30
2023-02-16T18:32:52.796Z,19.27
2023-02-16T18:35:21.357Z,16.65
2023-02-16T18:37:50.964Z,14.50
2023-02-16T18:40:21.324Z,15.93
2023-02-16T18:42:49.384Z,15.18
2023-02-16T18:45:17.767Z,17.97
2023-02-16T18:47:45.805Z,17.13
2023-02-16T18:50:13.992Z,18.20
2023-02-16T18:52:43.458Z,18.40
2023-02-16T18:55:13.672Z,17.65
2023-02-16T18:57:41.669Z,17.92
2023-02-16T19:00:12.150Z,18.50
2023-02-16T19:02:41.012Z,17.30
2023-02-16T19:05:09.485Z,12.88
2023-02-16T19:07:37.571Z,18.23
2023-02-16T19:10:08.437Z,17.23
2023-02-16T19:12:39.133Z,17.13
2023-02-16T19:15:07.690Z,19.08
2023-02-16T19:17:36.316Z,17.35
2023-02-16T19:20:04.890Z,17.27
2023-02-16T19:22:33.725Z,17.27
2023-02-16T19:25:01.665Z,17.90
2023-02-16T19:27:29.773Z,17.90
2023-02-16T19:29:59.028Z,17.63
2023-02-16T19:32:26.987Z,18.30
2023-02-16T19:34:55.212Z,16.63
2023-02-16T19:37:23.043Z,17.53
2023-02-16T19:39:51.027Z,17.13
2023-02-16T19:42:19.158Z,17.00
2023-02-16T19:44:46.959Z,18.27
2023-02-16T19:47:16.219Z,18.00
2023-02-16T19:49:44.234Z,16.87
2023-02-16T19:52:12.107Z,17.30
2023-02-16T19:54:40.043Z,17.48
2023-02-16T19:57:08.140Z,16.23
2023-02-16T19:59:36.242Z,17.08
2023-02-16T20:02:04.124Z,16.77
2023-02-16T20:04:33.891Z,19.27
2023-02-16T20:07:01.978Z,15.17
2023-02-16T20:09:30.720Z,16.03
2023-02-16T20:11:58.750Z,16.83
2023-02-16T20:14:27.850Z,17.63
2023-02-16T20:16:55.761Z,17.43
2023-02-16T20:19:23.798Z,15.67
2023-02-16T20:21:53.008Z,16.93
2023-02-16T20:24:20.880Z,16.23
2023-02-16T20:26:52.115Z,16.83
2023-02-16T20:29:21.013Z,16.03
2023-02-16T20:31:51.761Z,14.07
2023-02-16T20:34:20.347Z,16.43
2023-02-16T20:36:48.282Z,16.03
2023-02-16T20:39:17.583Z,16.43
2023-02-16T20:41:45.638Z,15.63
2023-02-16T20:44:13.988Z,16.30
2023-02-16T20:46:42.243Z,16.83
2023-02-16T20:49:10.635Z,17.00
2023-02-16T20:51:38.798Z,16.67
2023-02-16T20:54:07.030Z,15.97
2023-02-16T20:56:36.407Z,16.37
2023-02-16T20:59:05.642Z,16.57
2023-02-16T21:01:37.221Z,17.13
2023-02-16T21:04:07.481Z,17.10
2023-02-16T21:06:36.721Z,17.17
2023-02-16T21:09:05.672Z,17.47
2023-02-16T21:11:33.989Z,16.53
2023-02-16T21:14:03.307Z,14.27
2023-02-16T21:16:31.918Z,16.07
2023-02-16T21:19:00.008Z,16.37
2023-02-16T21:21:28.075Z,16.13
2023-02-16T21:23:56.862Z,17.20
2023-02-16T21:26:26.720Z,16.50
2023-02-16T21:28:54.686Z,16.80
2023-02-16T21:31:26.840Z,16.00
2023-02-16T21:33:55.506Z,16.40
2023-02-16T21:36:25.925Z,15.87
2023-02-16T21:38:54.163Z,14.07
2023-02-16T21:41:25.314Z,15.50
2023-02-16T21:44:00.770Z,15.83
2023-02-16T21:46:32.535Z,16.40
2023-02-16T21:48:59.770Z,16.33
2023-02-16T21:51:29.630Z,15.53
2023-02-16T21:53:58.900Z,14.60
2023-02-16T21:56:33.243Z,15.00
2023-02-16T21:59:02.211Z,16.17
2023-02-16T22:01:34.698Z,15.73
2023-02-16T22:04:03.439Z,14.60
2023-02-16T22:06:42.897Z,15.80
2023-02-16T22:09:14.371Z,15.53
2023-02-16T22:11:42.880Z,14.80
2023-02-16T22:14:11.226Z,15.80
2023-02-16T22:16:41.547Z,15.17
2023-02-16T22:19:13.172Z,14.97
2023-02-16T22:21:44.046Z,15.80
2023-02-16T22:24:14.564Z,17.13
2023-02-16T22:26:42.903Z,16.37
2023-02-16T22:29:11.851Z,16.70
2023-02-16T22:31:45.601Z,17.77
2023-02-16T22:34:15.992Z,14.10
2023-02-16T22:36:44.576Z,16.47
2023-02-16T22:39:14.196Z,16.20
2023-02-16T22:41:42.508Z,15.73
2023-02-16T22:44:11.852Z,15.47
2023-02-16T22:46:41.481Z,16.43
2023-02-16T22:49:11.188Z,17.93
2023-02-16T22:51:39.804Z,16.87
2023-02-16T22:54:08.193Z,17.73
2023-02-16T22:56:36.800Z,17.80
2023-02-16T22:59:04.905Z,15.97
2023-02-16T23:01:33.904Z,18.00
2023-02-16T23:04:04.059Z,16.23
2023-02-16T23:06:33.920Z,18.47
2023-02-16T23:09:05.055Z,14.13
2023-02-16T23:11:33.939Z,18.37
2023-02-16T23:14:02.295Z,17.20
2023-02-16T23:16:30.653Z,18.77
2023-02-16T23:19:00.687Z,18.40
2023-02-16T23:21:32.427Z,18.30
2023-02-16T23:24:01.515Z,18.60
2023-02-16T23:26:32.015Z,18.30
2023-02-16T23:29:02.783Z,19.10
2023-02-16T23:31:33.798Z,18.20
2023-02-16T23:34:02.895Z,15.70
2023-02-16T23:36:33.054Z,16.23
2023-02-16T23:39:01.729Z,16.73
2023-02-16T23:41:30.094Z,16.83
2023-02-16T23:44:00.661Z,16.27
2023-02-16T23:46:29.658Z,16.03
2023-02-16T23:48:58.389Z,16.57
2023-02-16T23:51:27.352Z,17.60
2023-02-16T23:53:57.234Z,16.03
2023-02-16T23:56:28.393Z,17.10
2023-02-16T23:58:58.723Z,17.60
